createdAt,value
2023-01-31T00:00:03.189Z,4.6
2023-01-31T00:20:02.740Z,4.4
2023-01-31T00:40:02.942Z,4.3
2023-01-31T01:00:02.378Z,4.3
2023-01-31T01:20:02.737Z,4.4
2023-01-31T01:40:03.041Z,4.3
2023-01-31T02:00:02.375Z,4.2
2023-01-31T02:20:02.959Z,4.3
2023-01-31T02:40:02.395Z,4.2
2023-01-31T03:00:02.611Z,4.2
2023-01-31T03:20:03.091Z,4.1
2023-01-31T03:40:02.448Z,4.1
2023-01-31T04:00:02.802Z,3.7
2023-01-31T04:20:03.109Z,3.5
2023-01-31T04:40:02.394Z,3.4
2023-01-31T05:00:02.616Z,3.2
2023-01-31T05:20:02.953Z,3.2
2023-01-31T05:40:02.343Z,3.2
2023-01-31T06:00:02.649Z,3.2
2023-01-31T06:20:02.142Z,3.2
2023-01-31T06:40:02.513Z,3.5
2023-01-31T07:00:02.787Z,3.7
2023-01-31T07:20:02.247Z,3.8
2023-01-31T07:40:02.547Z,4.1
2023-01-31T08:00:03.048Z,4.3
2023-01-31T08:20:02.776Z,4.3
2023-01-31T08:40:02.299Z,4.3
2023-01-31T09:00:03.047Z,4.4
2023-01-31T09:20:04.042Z,4.4
2023-01-31T09:40:02.723Z,4.6
2023-01-31T10:00:04.238Z,4.7
2023-01-31T10:20:03.050Z,4.9
2023-01-31T10:40:02.357Z,5.1
2023-01-31T11:00:02.857Z,5.3
2023-01-31T11:20:03.069Z,5.3
2023-01-31T11:40:02.614Z,5.4
2023-01-31T12:00:03.009Z,5.4
2023-01-31T12:20:02.338Z,5.4
2023-01-31T12:40:07.008Z,5.4
2023-01-31T13:00:02.815Z,5.3
2023-01-31T13:20:02.454Z,5.2
2023-01-31T13:40:02.910Z,5
2023-01-31T14:00:02.984Z,4.9
2023-01-31T14:20:02.901Z,4.9
2023-01-31T14:40:02.370Z,4.9
2023-01-31T15:00:02.764Z,4.9
2023-01-31T15:20:02.349Z,5
2023-01-31T15:40:02.797Z,5.2
2023-01-31T16:00:02.661Z,5.3
2023-01-31T16:20:02.332Z,5.3
2023-01-31T16:40:02.867Z,5.5
2023-01-31T17:00:02.451Z,5.6
2023-01-31T17:20:02.233Z,5.7
2023-01-31T17:40:02.551Z,5.8
2023-01-31T18:00:03.500Z,5.9
2023-01-31T18:20:02.093Z,5.8
2023-01-31T18:40:02.346Z,6
2023-01-31T19:00:03.272Z,6.1
2023-01-31T19:20:02.713Z,6.3
2023-01-31T19:40:03.263Z,6
2023-01-31T20:00:02.573Z,5.2
2023-01-31T20:20:03.183Z,5.2
2023-01-31T20:40:02.558Z,5.2
2023-01-31T21:00:03.122Z,5.2
2023-01-31T21:20:02.361Z,5.2
2023-01-31T21:40:02.647Z,5.2
2023-01-31T22:00:03.023Z,5.2
2023-01-31T22:20:02.352Z,4.4
2023-01-31T22:40:03.103Z,4.3
2023-01-31T23:00:03.350Z,3.9
2023-01-31T23:20:02.844Z,4
2023-01-31T23:40:02.304Z,4.5
